Huvudsida
METAR-TAF:

METAR-TAF

Flygplatser :

Šiauliai internationella flygplats

Šiauliai, Litauen

latitud: 55-53-38N, longitud: 023-23-42E, höjd: 135 m

Aktuellt väderrapport

Denna rapport gjordes för 20 minuter sedan, klockan 01:20 UTC
Vind 5 kt från sydost
Temperatur 15°C
Fuktighet 82%
Tryck 1016 hPa
Sikt 10 km eller mer
Inga moln under 1 500 m eller inga cumulonimbus

METAR: EYSA 290120Z 14005KT CAVOK 15/12 Q1016 NOSIG

Tid: 04:40 (01:40 UTC)

Väderprognos

Denna rapport gjordes för 2 timmar och 40 minuter sedan, klockan 23:00 UTC
Prognos gäller från 29 kl. 00 UTC till 29 kl. 09 UTC
Vind 5 kt varierande vindriktning
Sikt: 9000 m
Temporärt
från 29 kl. 01 UTC till 29 kl. 04 UTC
Sikt: 5000 m
grunt dimma, fuktdis,

TAF: EYSA 282300Z 2900/2909 VRB05KT 9000 NSC TEMPO 2901/2904 5000 MIFG BR

Aktuella väderrapporter och prognoser från 4000 flygplatser (METAR- och TAF-rapporter).

De tillgängliga stationerna syns som gula och röda prickar på kartan.

För musen över prickarna för att se namnen på stationerna.

Klicka sedan för att få väderrapporter och prognoser.

För att ändra kartan: Klicka på de gröna knapparna med ett svart kors på för att zooma in; den gröna knappen med ett streck på för att zooma ut; eller på de gröna pilarna för angränsande kartor.


METAR-TAF: